createdAt,value
2022-08-09T00:00:11.245Z,102065.74
2022-08-09T00:02:43.022Z,102068.32
2022-08-09T00:06:19.833Z,102071.76
2022-08-09T00:08:09.658Z,102073.55
2022-08-09T00:10:41.977Z,102067.73
2022-08-09T00:13:16.706Z,102060.31
2022-08-09T00:15:59.870Z,102074.30
2022-08-09T00:18:34.954Z,102066.88
2022-08-09T00:21:07.799Z,102069.44
2022-08-09T00:23:55.721Z,102073.06
2022-08-09T00:26:30.158Z,102069.27
2022-08-09T00:29:02.575Z,102074.24
2022-08-09T00:31:58.459Z,102064.46
2022-08-09T00:34:19.875Z,102071.46
2022-08-09T00:36:52.131Z,102072.41
2022-08-09T00:40:12.636Z,102072.09
2022-08-09T00:44:14.428Z,102080.59
2022-08-09T00:44:56.620Z,102070.97
2022-08-09T00:47:25.351Z,102074.44
2022-08-09T00:49:56.905Z,102077.41
2022-08-09T00:52:29.986Z,102073.69
2022-08-09T00:55:02.713Z,102073.98
2022-08-09T00:57:34.400Z,102071.59
2022-08-09T01:00:21.657Z,102073.45
2022-08-09T01:03:02.667Z,102077.15
2022-08-09T01:05:51.548Z,102081.11
2022-08-09T01:08:28.119Z,102079.77
2022-08-09T01:11:22.209Z,102075.52
2022-08-09T01:14:02.831Z,102078.69
2022-08-09T01:16:38.856Z,102084.97
2022-08-09T01:19:39.898Z,102088.07
2022-08-09T01:22:26.115Z,102085.16
2022-08-09T01:25:24.746Z,102088.86
2022-08-09T01:27:57.047Z,102087.81
2022-08-09T01:30:35.465Z,102089.94
2022-08-09T01:33:06.254Z,102085.72
2022-08-09T01:35:51.858Z,102092.52
2022-08-09T01:38:25.590Z,102090.95
2022-08-09T01:41:16.162Z,102084.87
2022-08-09T01:43:52.691Z,102087.78
2022-08-09T01:46:51.380Z,102076.20
2022-08-09T01:49:24.170Z,102076.50
2022-08-09T01:51:55.611Z,102089.77
2022-08-09T01:54:33.632Z,102086.11
2022-08-09T01:57:08.170Z,102088.50
2022-08-09T01:59:50.868Z,102077.41
2022-08-09T02:02:31.147Z,102080.32
2022-08-09T02:05:05.683Z,102081.89
2022-08-09T02:08:41.309Z,102077.38
2022-08-09T02:10:56.451Z,102080.78
2022-08-09T02:13:37.419Z,102074.66
2022-08-09T02:16:11.412Z,102084.64
2022-08-09T02:18:42.839Z,102080.13
2022-08-09T02:21:22.369Z,102075.32
2022-08-09T02:24:01.953Z,102083.46
2022-08-09T02:26:35.510Z,102079.44
2022-08-09T02:29:15.380Z,102076.76
2022-08-09T02:31:47.573Z,102073.55
2022-08-09T02:34:40.572Z,102074.57
2022-08-09T02:37:15.369Z,102082.45
2022-08-09T02:39:49.813Z,102085.49
2022-08-09T02:42:28.918Z,102077.22
2022-08-09T02:45:11.706Z,102084.87
2022-08-09T02:47:46.363Z,102083.46
2022-08-09T02:51:07.763Z,102076.07
2022-08-09T02:53:43.162Z,102078.91
2022-08-09T02:56:29.503Z,102068.03
2022-08-09T02:58:58.411Z,102073.06
2022-08-09T03:01:42.562Z,102072.73
2022-08-09T03:04:19.397Z,102075.05
2022-08-09T03:06:49.284Z,102081.24
2022-08-09T03:09:21.377Z,102077.25
2022-08-09T03:12:06.162Z,102076.14
2022-08-09T03:14:38.266Z,102081.08
2022-08-09T03:17:20.344Z,102080.75
2022-08-09T03:20:00.222Z,102076.73
2022-08-09T03:22:34.322Z,102076.70
2022-08-09T03:25:26.124Z,102082.41
2022-08-09T03:28:01.655Z,102080.78
2022-08-09T03:30:33.384Z,102079.63
2022-08-09T03:33:17.502Z,102074.60
2022-08-09T03:36:13.665Z,102074.02
2022-08-09T03:38:42.588Z,102082.16
2022-08-09T03:41:16.633Z,102077.38
2022-08-09T03:44:07.586Z,102077.38
2022-08-09T03:46:36.094Z,102079.48
2022-08-09T03:49:08.090Z,102092.09
2022-08-09T03:51:56.819Z,102089.12
2022-08-09T03:54:29.662Z,102088.50
2022-08-09T03:57:02.093Z,102096.64
2022-08-09T03:59:53.733Z,102107.10
2022-08-09T04:02:26.400Z,102108.12
2022-08-09T04:04:57.191Z,102107.04
2022-08-09T04:07:47.478Z,102098.90
2022-08-09T04:10:20.403Z,102105.47
2022-08-09T04:12:51.603Z,102110.21
2022-08-09T04:15:40.591Z,102105.73
2022-08-09T04:18:16.453Z,102105.47
2022-08-09T04:20:47.202Z,102120.12
2022-08-09T04:23:17.153Z,102120.12
2022-08-09T04:25:51.981Z,102126.43
2022-08-09T04:28:33.789Z,102129.90
2022-08-09T04:31:09.192Z,102128.10
2022-08-09T04:33:52.333Z,102132.88
2022-08-09T04:36:31.629Z,102132.88
2022-08-09T04:39:02.530Z,102131.01
2022-08-09T04:41:32.202Z,102137.29
2022-08-09T04:44:07.129Z,102143.70
2022-08-09T04:46:59.010Z,102145.07
2022-08-09T04:49:40.235Z,102145.07
2022-08-09T04:52:18.374Z,102146.90
2022-08-09T04:54:52.459Z,102143.50
2022-08-09T04:57:24.155Z,102144.35
2022-08-09T04:59:53.654Z,102144.91
2022-08-09T05:02:21.350Z,102154.20
2022-08-09T05:04:55.222Z,102155.77
2022-08-09T05:07:23.707Z,102154.48
2022-08-09T05:09:51.961Z,102157.37
2022-08-09T05:12:22.565Z,102150.56
2022-08-09T05:14:50.456Z,102159.00
2022-08-09T05:18:50.702Z,102157.76
2022-08-09T05:20:07.617Z,102160.70
2022-08-09T05:23:56.598Z,102152.03
2022-08-09T05:25:24.205Z,102153.21
2022-08-09T05:27:55.324Z,102158.84
2022-08-09T05:30:23.286Z,102159.52
2022-08-09T05:32:53.355Z,102162.70
2022-08-09T05:35:22.359Z,102163.97
2022-08-09T05:37:50.539Z,102162.92
2022-08-09T05:40:18.859Z,102166.84
2022-08-09T05:42:47.500Z,102166.62
2022-08-09T05:45:15.223Z,102164.63
2022-08-09T05:47:51.483Z,102163.16
2022-08-09T05:50:25.686Z,102164.49
2022-08-09T05:53:03.125Z,102165.67
2022-08-09T05:55:31.506Z,102167.05
2022-08-09T05:57:59.430Z,102158.09
2022-08-09T06:00:30.082Z,102156.58
2022-08-09T06:03:03.707Z,102157.70
2022-08-09T06:05:50.617Z,102162.79
2022-08-09T06:08:24.617Z,102169.20
2022-08-09T06:10:58.011Z,102175.05
2022-08-09T06:13:28.714Z,102177.73
2022-08-09T06:16:04.965Z,102181.20
2022-08-09T06:18:33.558Z,102187.77
2022-08-09T06:21:02.331Z,102182.55
2022-08-09T06:23:57.553Z,102186.20
2022-08-09T06:26:22.185Z,102192.59
2022-08-09T06:29:00.524Z,102184.41
2022-08-09T06:31:39.249Z,102183.33
2022-08-09T06:34:19.929Z,102187.88
2022-08-09T06:36:50.992Z,102186.83
2022-08-09T06:39:29.480Z,102193.95
2022-08-09T06:42:15.457Z,102193.70
2022-08-09T06:44:43.478Z,102204.26
2022-08-09T06:47:11.241Z,102194.74
2022-08-09T06:50:11.999Z,102196.05
2022-08-09T06:52:28.051Z,102187.88
2022-08-09T06:54:55.710Z,102195.00
2022-08-09T06:57:25.835Z,102192.09
2022-08-09T07:00:50.247Z,102192.62
2022-08-09T07:02:59.242Z,102190.49
2022-08-09T07:06:02.684Z,102189.94
2022-08-09T07:08:14.952Z,102190.98
2022-08-09T07:10:42.680Z,102193.34
2022-08-09T07:13:27.522Z,102189.31
2022-08-09T07:16:41.316Z,102188.79
2022-08-09T07:18:44.739Z,102183.16
2022-08-09T07:21:15.343Z,102180.81
2022-08-09T07:23:56.600Z,102181.01
2022-08-09T07:26:26.668Z,102178.85
2022-08-09T07:29:09.328Z,102188.59
2022-08-09T07:31:45.175Z,102185.13
2022-08-09T07:34:20.543Z,102185.09
2022-08-09T07:36:50.375Z,102190.88
2022-08-09T07:39:40.940Z,102181.30
2022-08-09T07:42:08.514Z,102184.18
2022-08-09T07:44:52.494Z,102190.26
2022-08-09T07:47:23.540Z,102192.09
2022-08-09T07:50:04.314Z,102195.79
2022-08-09T07:52:35.646Z,102185.65
2022-08-09T07:55:09.657Z,102190.88
2022-08-09T07:57:46.658Z,102183.43
2022-08-09T08:00:20.530Z,102192.13
2022-08-09T08:03:08.040Z,102190.49
2022-08-09T08:05:53.477Z,102190.95
2022-08-09T08:09:02.413Z,102182.15
2022-08-09T08:12:09.230Z,102187.35
2022-08-09T08:13:58.029Z,102183.85
2022-08-09T08:16:30.009Z,102180.58
2022-08-09T08:19:03.067Z,102174.96
2022-08-09T08:21:32.427Z,102176.46
2022-08-09T08:24:01.408Z,102176.10
2022-08-09T08:26:55.126Z,102176.30
2022-08-09T08:29:27.705Z,102185.45
2022-08-09T08:32:03.455Z,102181.37
2022-08-09T08:34:31.970Z,102179.17
2022-08-09T08:37:02.164Z,102178.29
2022-08-09T08:39:32.943Z,102175.28
2022-08-09T08:42:08.176Z,102171.75
2022-08-09T08:44:37.967Z,102185.75
2022-08-09T08:47:13.044Z,102179.77
2022-08-09T08:49:48.038Z,102178.33
2022-08-09T08:55:07.253Z,102178.95
2022-08-09T08:57:37.129Z,102180.68
2022-08-09T09:00:17.166Z,102174.73
2022-08-09T09:02:52.569Z,102177.02
2022-08-09T09:05:33.015Z,102177.70
2022-08-09T09:08:30.488Z,102178.42
2022-08-09T09:11:05.459Z,102179.90
2022-08-09T09:13:55.759Z,102172.41
2022-08-09T09:16:35.817Z,102186.11
2022-08-09T09:19:37.318Z,102180.74
2022-08-09T09:22:04.123Z,102179.63
2022-08-09T09:24:37.959Z,102183.55
2022-08-09T09:27:08.537Z,102181.10
2022-08-09T09:30:11.563Z,102186.83
2022-08-09T09:32:34.188Z,102176.16
2022-08-09T09:35:03.126Z,102180.32
2022-08-09T09:37:37.611Z,102184.73
2022-08-09T09:40:09.595Z,102189.12
2022-08-09T09:42:37.414Z,102179.21
2022-08-09T09:45:09.445Z,102186.08
2022-08-09T09:47:58.301Z,102178.20
2022-08-09T09:50:51.141Z,102187.32
2022-08-09T09:53:57.798Z,102184.84
2022-08-09T09:56:30.844Z,102197.03
2022-08-09T09:58:59.504Z,102196.67
2022-08-09T10:01:36.711Z,102196.80
2022-08-09T10:04:09.755Z,102185.98
2022-08-09T10:06:47.232Z,102180.26
2022-08-09T10:09:22.712Z,102180.91
2022-08-09T10:12:12.124Z,102179.70
2022-08-09T10:14:51.953Z,102170.18
2022-08-09T10:17:51.283Z,102175.38
2022-08-09T10:20:27.316Z,102182.34
2022-08-09T10:23:21.083Z,102178.72
2022-08-09T10:26:07.257Z,102187.61
2022-08-09T10:28:39.099Z,102184.90
2022-08-09T10:34:09.775Z,102187.91
2022-08-09T10:36:39.818Z,102185.45
2022-08-09T10:39:15.688Z,102190.16
2022-08-09T10:41:47.951Z,102186.34
2022-08-09T10:44:23.148Z,102178.16
2022-08-09T10:48:17.414Z,102185.81
2022-08-09T10:50:31.476Z,102175.32
2022-08-09T10:53:23.098Z,102175.77
2022-08-09T10:55:58.699Z,102168.94
2022-08-09T10:58:37.362Z,102162.73
2022-08-09T11:03:02.203Z,102184.48
2022-08-09T11:04:29.679Z,102181.98
2022-08-09T11:07:00.560Z,102175.19
2022-08-09T11:09:47.542Z,102176.40
2022-08-09T11:12:22.842Z,102175.05
2022-08-09T11:15:23.975Z,102163.31
2022-08-09T11:18:02.890Z,102178.20
2022-08-09T11:20:49.637Z,102174.89
2022-08-09T11:23:23.927Z,102173.16
2022-08-09T11:25:57.596Z,102177.67
2022-08-09T11:28:55.937Z,102164.59
2022-08-09T11:31:52.629Z,102177.67
2022-08-09T11:34:34.939Z,102180.48
2022-08-09T11:37:07.431Z,102170.87
2022-08-09T11:40:02.876Z,102169.56
2022-08-09T11:42:43.013Z,102170.54
2022-08-09T11:45:43.123Z,102171.33
2022-08-09T11:48:26.178Z,102168.62
2022-08-09T11:51:38.004Z,102167.44
2022-08-09T11:54:27.786Z,102172.18
2022-08-09T11:57:59.788Z,102178.88
2022-08-09T12:00:27.730Z,102175.02
2022-08-09T12:02:57.887Z,102171.72
2022-08-09T12:05:39.527Z,102170.34
2022-08-09T12:08:12.447Z,102167.05
2022-08-09T12:10:56.439Z,102158.64
2022-08-09T12:14:08.060Z,102149.09
2022-08-09T12:16:38.339Z,102159.09
2022-08-09T12:19:12.132Z,102155.20
2022-08-09T12:21:50.785Z,102147.59
2022-08-09T12:24:25.307Z,102152.75
2022-08-09T12:29:14.481Z,102153.96
2022-08-09T12:30:01.929Z,102153.18
2022-08-09T12:32:48.551Z,102159.49
2022-08-09T12:35:19.163Z,102151.45
2022-08-09T12:37:51.993Z,102149.29
2022-08-09T12:40:24.350Z,102149.95
2022-08-09T12:42:53.015Z,102145.63
2022-08-09T12:45:32.206Z,102145.00
2022-08-09T12:48:04.399Z,102148.77
2022-08-09T12:50:33.082Z,102152.27
2022-08-09T12:53:09.001Z,102147.55
2022-08-09T12:56:12.894Z,102156.71
2022-08-09T12:58:34.429Z,102146.67
2022-08-09T13:01:22.111Z,102152.10
2022-08-09T13:04:12.179Z,102142.29
2022-08-09T13:06:57.065Z,102134.08
2022-08-09T13:09:27.428Z,102139.51
2022-08-09T13:12:06.589Z,102135.55
2022-08-09T13:14:41.458Z,102128.49
2022-08-09T13:17:43.989Z,102139.05
2022-08-09T13:20:14.435Z,102135.45
2022-08-09T13:23:04.905Z,102133.85
2022-08-09T13:25:53.216Z,102134.18
2022-08-09T13:28:34.168Z,102127.67
2022-08-09T13:32:20.059Z,102133.33
2022-08-09T13:34:03.614Z,102134.08
2022-08-09T13:36:40.956Z,102122.70
2022-08-09T13:41:17.773Z,102122.15
2022-08-09T13:42:03.526Z,102126.10
2022-08-09T13:44:32.659Z,102133.33
2022-08-09T13:47:29.012Z,102114.37
2022-08-09T13:49:56.237Z,102126.46
2022-08-09T13:52:25.436Z,102116.20
2022-08-09T13:55:00.197Z,102111.91
2022-08-09T13:57:39.903Z,102120.28
2022-08-09T14:00:20.034Z,102110.84
2022-08-09T14:03:03.188Z,102112.76
2022-08-09T14:06:00.617Z,102111.78
2022-08-09T14:08:28.316Z,102110.80
2022-08-09T14:10:57.034Z,102110.57
2022-08-09T14:14:15.566Z,102113.71
2022-08-09T14:16:19.678Z,102112.56
2022-08-09T14:18:58.268Z,102110.99
2022-08-09T14:21:29.440Z,102103.57
2022-08-09T14:24:01.355Z,102112.76
2022-08-09T14:26:37.969Z,102113.02
2022-08-09T14:30:18.541Z,102107.27
2022-08-09T14:31:57.556Z,102105.70
2022-08-09T14:34:31.165Z,102111.95
2022-08-09T14:37:07.575Z,102099.19
2022-08-09T14:39:47.419Z,102095.92
2022-08-09T14:42:32.193Z,102104.72
2022-08-09T14:46:39.116Z,102104.06
2022-08-09T14:47:58.636Z,102090.98
2022-08-09T14:50:31.453Z,102099.19
2022-08-09T14:53:00.771Z,102091.41
2022-08-09T14:55:32.803Z,102093.17
2022-08-09T14:58:05.448Z,102086.96
2022-08-09T15:00:37.074Z,102096.97
2022-08-09T15:03:09.037Z,102097.59
2022-08-09T15:05:39.996Z,102095.49
2022-08-09T15:08:19.309Z,102106.32
2022-08-09T15:11:00.341Z,102109.88
2022-08-09T15:13:48.143Z,102102.10
2022-08-09T15:16:17.880Z,102091.93
2022-08-09T15:18:49.123Z,102098.99
2022-08-09T15:21:57.167Z,102101.32
2022-08-09T15:24:12.135Z,102101.77
2022-08-09T15:26:45.299Z,102096.51
2022-08-09T15:30:56.813Z,102093.99
2022-08-09T15:32:02.400Z,102094.38
2022-08-09T15:34:33.247Z,102086.99
2022-08-09T15:37:04.459Z,102085.85
2022-08-09T15:39:48.751Z,102086.24
2022-08-09T15:42:21.904Z,102090.00
2022-08-09T15:44:49.957Z,102090.07
2022-08-09T15:47:22.830Z,102081.44
2022-08-09T15:50:04.915Z,102082.45
2022-08-09T15:52:37.890Z,102076.95
2022-08-09T15:55:08.732Z,102072.28
2022-08-09T15:57:44.213Z,102075.26
2022-08-09T16:00:25.564Z,102080.16
2022-08-09T16:02:56.544Z,102066.66
2022-08-09T16:05:47.429Z,102065.67
2022-08-09T16:08:29.550Z,102066.10
2022-08-09T16:10:59.563Z,102067.27
2022-08-09T16:14:03.717Z,102066.88
2022-08-09T16:16:18.556Z,102060.64
2022-08-09T16:18:47.039Z,102063.74
2022-08-09T16:21:17.195Z,102068.26
2022-08-09T16:23:55.080Z,102069.04
2022-08-09T16:26:33.997Z,102067.47
2022-08-09T16:29:14.513Z,102059.43
2022-08-09T16:32:18.709Z,102060.64
2022-08-09T16:34:54.930Z,102054.95
2022-08-09T16:37:56.084Z,102053.73
2022-08-09T16:40:10.995Z,102056.13
2022-08-09T16:42:44.985Z,102051.38
2022-08-09T16:45:15.815Z,102057.07
2022-08-09T16:48:38.849Z,102057.70
2022-08-09T16:50:34.240Z,102060.64
2022-08-09T16:53:05.604Z,102067.27
2022-08-09T16:56:01.365Z,102061.20
2022-08-09T16:58:21.827Z,102066.10
2022-08-09T17:00:50.308Z,102063.52
2022-08-09T17:03:21.731Z,102058.45
2022-08-09T17:06:07.687Z,102062.96
2022-08-09T17:08:58.915Z,102062.96
2022-08-09T17:11:40.150Z,102061.75
2022-08-09T17:14:26.057Z,102074.47
2022-08-09T17:16:59.467Z,102062.34
2022-08-09T17:19:47.517Z,102065.25
2022-08-09T17:22:16.358Z,102064.43
2022-08-09T17:24:54.917Z,102066.55
2022-08-09T17:27:23.784Z,102068.45
2022-08-09T17:29:52.183Z,102070.94
2022-08-09T17:32:34.886Z,102066.39
2022-08-09T17:35:11.717Z,102076.73
2022-08-09T17:38:10.213Z,102074.90
2022-08-09T17:40:32.632Z,102084.48
2022-08-09T17:43:11.170Z,102086.02
2022-08-09T17:46:03.612Z,102083.63
2022-08-09T17:48:51.949Z,102090.66
2022-08-09T17:51:21.409Z,102083.56
2022-08-09T17:53:52.999Z,102088.99
2022-08-09T17:56:35.878Z,102089.38
2022-08-09T17:59:11.425Z,102098.54
2022-08-09T18:02:07.786Z,102092.23
2022-08-09T18:04:32.436Z,102093.17
2022-08-09T18:07:04.643Z,102100.20
2022-08-09T18:09:41.071Z,102096.84
2022-08-09T18:12:14.913Z,102097.78
2022-08-09T18:14:50.041Z,102100.86
2022-08-09T18:17:27.528Z,102102.59
2022-08-09T18:20:58.763Z,102105.86
2022-08-09T18:23:04.711Z,102100.14
2022-08-09T18:25:50.664Z,102104.59
2022-08-09T18:30:35.368Z,102108.64
2022-08-09T18:31:08.815Z,102110.11
2022-08-09T18:33:37.201Z,102110.84
2022-08-09T18:36:08.368Z,102124.27
2022-08-09T18:38:42.206Z,102113.25
2022-08-09T18:41:10.254Z,102120.58
2022-08-09T18:43:53.067Z,102118.55
2022-08-09T18:46:47.971Z,102114.98
2022-08-09T18:49:09.086Z,102119.62
2022-08-09T18:51:38.587Z,102120.31
2022-08-09T18:54:28.790Z,102122.02
2022-08-09T18:57:05.907Z,102122.93
2022-08-09T18:59:37.310Z,102130.48
2022-08-09T19:02:16.477Z,102129.02
2022-08-09T19:04:47.754Z,102134.97
2022-08-09T19:07:32.157Z,102136.66
2022-08-09T19:10:16.586Z,102135.42
2022-08-09T19:13:04.670Z,102140.03
2022-08-09T19:15:33.824Z,102145.43
2022-08-09T19:18:01.927Z,102143.40
2022-08-09T19:20:34.110Z,102143.76
2022-08-09T19:23:06.807Z,102144.09
2022-08-09T19:26:01.521Z,102138.56
2022-08-09T19:28:22.735Z,102149.02
2022-08-09T19:30:56.713Z,102149.95
2022-08-09T19:33:24.803Z,102148.66
2022-08-09T19:35:58.467Z,102154.65
2022-08-09T19:38:27.250Z,102151.25
2022-08-09T19:40:55.586Z,102152.95
2022-08-09T19:44:01.917Z,102142.62
2022-08-09T19:46:14.551Z,102150.40
2022-08-09T19:49:01.559Z,102148.37
2022-08-09T19:51:30.915Z,102143.86
2022-08-09T19:54:02.591Z,102140.49
2022-08-09T19:56:34.537Z,102149.58
2022-08-09T19:59:40.490Z,102146.45
2022-08-09T20:02:04.641Z,102147.29
2022-08-09T20:04:40.458Z,102144.94
2022-08-09T20:07:21.090Z,102148.96
2022-08-09T20:09:50.362Z,102152.46
2022-08-09T20:12:31.647Z,102152.20
2022-08-09T20:16:31.517Z,102148.27
2022-08-09T20:17:55.025Z,102144.12
2022-08-09T20:20:24.777Z,102153.18
2022-08-09T20:22:56.287Z,102155.08
2022-08-09T20:25:24.457Z,102151.12
2022-08-09T20:27:53.198Z,102161.02
2022-08-09T20:30:25.031Z,102155.50
2022-08-09T20:32:53.031Z,102160.34
2022-08-09T20:35:22.342Z,102167.27
2022-08-09T20:38:21.049Z,102164.66
2022-08-09T20:40:38.233Z,102167.66
2022-08-09T20:43:19.176Z,102166.36
2022-08-09T20:46:00.705Z,102165.60
2022-08-09T20:48:40.710Z,102159.30
2022-08-09T20:51:16.770Z,102168.58
2022-08-09T20:53:48.890Z,102166.78
2022-08-09T20:56:20.698Z,102164.40
2022-08-09T20:58:54.539Z,102164.72
2022-08-09T21:01:34.342Z,102166.06
2022-08-09T21:05:56.105Z,102168.19
2022-08-09T21:07:13.138Z,102162.89
2022-08-09T21:09:56.382Z,102162.89
2022-08-09T21:12:32.138Z,102161.06
2022-08-09T21:15:17.313Z,102149.95
2022-08-09T21:18:29.880Z,102146.80
2022-08-09T21:20:39.495Z,102144.64
2022-08-09T21:23:08.887Z,102139.38
2022-08-09T21:25:55.706Z,102143.89
2022-08-09T21:28:35.851Z,102136.21
2022-08-09T21:31:17.612Z,102142.03
2022-08-09T21:33:50.374Z,102146.54
2022-08-09T21:36:20.023Z,102147.88
2022-08-09T21:38:51.003Z,102139.70
2022-08-09T21:41:53.443Z,102144.97
2022-08-09T21:44:15.391Z,102136.77
2022-08-09T21:47:00.500Z,102129.90
2022-08-09T21:49:29.585Z,102128.33
2022-08-09T21:52:15.010Z,102128.55
2022-08-09T21:54:51.123Z,102134.15
2022-08-09T21:57:38.301Z,102138.43
2022-08-09T22:00:34.161Z,102128.85
2022-08-09T22:03:06.389Z,102129.96
2022-08-09T22:05:41.659Z,102126.82
2022-08-09T22:08:14.821Z,102119.40
2022-08-09T22:11:49.238Z,102120.74
2022-08-09T22:13:36.900Z,102119.73
2022-08-09T22:16:09.379Z,102123.16
2022-08-09T22:18:53.594Z,102118.45
2022-08-09T22:21:27.550Z,102124.83
2022-08-09T22:24:16.587Z,102126.95
2022-08-09T22:26:51.177Z,102122.21
2022-08-09T22:29:24.030Z,102120.64
2022-08-09T22:31:57.454Z,102118.29
2022-08-09T22:34:29.258Z,102118.81
2022-08-09T22:36:58.405Z,102125.19
2022-08-09T22:39:55.929Z,102129.47
2022-08-09T22:42:22.349Z,102122.05
2022-08-09T22:45:02.328Z,102119.43
2022-08-09T22:48:13.314Z,102113.35
2022-08-09T22:50:32.855Z,102114.46
2022-08-09T22:53:03.825Z,102114.76
2022-08-09T22:56:06.375Z,102112.37
2022-08-09T22:58:32.249Z,102116.66
2022-08-09T23:01:05.850Z,102114.01
2022-08-09T23:04:05.244Z,102115.64
2022-08-09T23:06:29.855Z,102115.41
2022-08-09T23:09:04.642Z,102113.28
2022-08-09T23:11:32.366Z,102116.98
2022-08-09T23:14:00.715Z,102104.59
2022-08-09T23:16:28.410Z,102110.96
2022-08-09T23:18:56.109Z,102110.21
2022-08-09T23:21:25.965Z,102108.05
2022-08-09T23:24:05.019Z,102112.30
2022-08-09T23:26:33.563Z,102119.01
2022-08-09T23:29:01.314Z,102117.96
2022-08-09T23:31:29.099Z,102109.52
2022-08-09T23:33:56.839Z,102111.65
2022-08-09T23:36:24.508Z,102107.20
2022-08-09T23:38:52.245Z,102105.93
2022-08-09T23:41:27.793Z,102104.33
2022-08-09T23:43:58.587Z,102111.26
2022-08-09T23:46:26.454Z,102112.60
2022-08-09T23:48:54.426Z,102108.12
2022-08-09T23:51:22.278Z,102110.80
2022-08-09T23:53:52.411Z,102107.89
2022-08-09T23:56:53.082Z,102110.27
2022-08-09T23:59:08.543Z,102109.49
